Time;durP1;ratioP1;P1;durP2;ratioP2;P2;SDS_P1;SDS_P2;PMS_P1;PMS_P2;Temp;Humidity;BMP_temperature;BMP_pressure;BME280_temperature;BME280_humidity;BME280_pressure;Samples;Min_cycle;Max_cycle;Signal;HPM_P1;HPM_P2
2022/10/11 00:01:56;;;;;;;10.23;4.60;;;11.60;69.60;;;;;;4955202;28;20231;-95
2022/10/11 00:04:43;;;;;;;12.40;5.17;;;11.60;69.80;;;;;;4955626;28;20217;-95
2022/10/11 00:07:14;;;;;;;8.97;4.77;;;11.60;70.40;;;;;;4946705;28;20737;-95
2022/10/11 00:09:43;;;;;;;10.43;4.43;;;11.60;70.20;;;;;;4949529;29;20223;-95
2022/10/11 00:12:11;;;;;;;14.90;6.60;;;11.60;70.10;;;;;;4948431;28;20230;-96
2022/10/11 00:14:40;;;;;;;14.43;5.63;;;11.60;70.30;;;;;;4954268;28;20229;-95
2022/10/11 00:17:09;;;;;;;10.10;5.27;;;11.50;70.50;;;;;;4955560;28;20216;-94
2022/10/11 00:19:37;;;;;;;13.30;5.77;;;11.60;70.60;;;;;;4955699;28;20260;-95
2022/10/11 00:22:10;;;;;;;13.50;6.50;;;11.50;70.60;;;;;;4953597;28;20235;-95
2022/10/11 00:24:40;;;;;;;17.07;6.53;;;11.60;71.10;;;;;;4957049;28;20215;-93
2022/10/11 00:30:15;;;;;;;10.97;4.87;;;11.60;71.60;;;;;;4951324;29;20237;-96
2022/10/11 00:32:46;;;;;;;13.17;5.83;;;11.50;71.50;;;;;;4960030;28;20976;-95
2022/10/11 00:35:49;;;;;;;16.33;6.33;;;11.60;71.10;;;;;;4964892;28;20208;-95
2022/10/11 00:38:27;;;;;;;;;;;;;;;;;;;;;
2022/10/11 00:41:14;;;;;;;25.60;8.77;;;11.60;71.20;;;;;;4971284;28;20189;-95
2022/10/11 00:43:41;;;;;;;16.53;6.43;;;11.60;71.60;;;;;;4968574;29;20213;-95
2022/10/11 00:46:36;;;;;;;14.47;6.00;;;11.60;71.50;;;;;;4976662;28;20208;-95
2022/10/11 00:49:09;;;;;;;16.93;6.17;;;11.60;71.70;;;;;;4970880;28;20200;-95
2022/10/11 00:51:43;;;;;;;12.37;6.03;;;11.60;71.60;;;;;;4971585;28;20205;-96
2022/10/11 00:54:49;;;;;;;14.87;5.90;;;11.60;71.60;;;;;;4947518;28;20212;-95
2022/10/11 01:00:32;;;;;;;15.83;5.73;;;11.60;71.70;;;;;;4865413;29;20252;-95
2022/10/11 01:05:57;;;;;;;14.40;5.20;;;11.60;71.20;;;;;;4954811;28;20219;-95
2022/10/11 01:08:40;;;;;;;12.83;5.10;;;11.60;71.00;;;;;;4958995;28;20200;-95
2022/10/11 01:15:16;;;;;;;11.43;5.30;;;11.60;71.30;;;;;;4944554;29;20615;-95
2022/10/11 01:17:54;;;;;;;29.07;9.30;;;11.70;71.70;;;;;;4957597;29;20199;-95
2022/10/11 01:21:05;;;;;;;12.80;5.27;;;11.60;71.60;;;;;;4969813;29;20280;-94
2022/10/11 01:27:35;;;;;;;9.13;4.37;;;11.60;72.00;;;;;;4944955;29;20742;-95
2022/10/11 01:30:51;;;;;;;16.50;6.63;;;11.60;72.20;;;;;;4945447;29;20239;-95
2022/10/11 01:33:29;;;;;;;11.13;4.80;;;11.60;72.10;;;;;;4927007;29;20209;-95
2022/10/11 01:36:09;;;;;;;11.70;5.37;;;11.60;72.20;;;;;;4952050;29;20201;-96
2022/10/11 01:39:05;;;;;;;11.87;5.30;;;11.60;72.50;;;;;;4941189;29;20201;-95
2022/10/11 01:42:04;;;;;;;11.10;4.83;;;11.60;72.80;;;;;;4947775;29;20232;-96
2022/10/11 01:44:36;;;;;;;14.83;6.03;;;11.60;72.60;;;;;;4950149;29;20262;-96
2022/10/11 01:47:06;;;;;;;11.07;5.03;;;11.60;72.30;;;;;;4957874;28;20215;-96
2022/10/11 01:49:33;;;;;;;12.47;5.37;;;11.60;72.30;;;;;;4962225;28;20209;-96
2022/10/11 01:52:05;;;;;;;13.50;6.07;;;11.50;72.10;;;;;;4956112;28;20208;-96
2022/10/11 01:55:44;;;;;;;16.87;6.27;;;11.60;72.30;;;;;;4955468;28;20212;-96
2022/10/11 01:58:19;;;;;;;19.23;6.70;;;11.60;72.30;;;;;;4947360;29;20212;-95
2022/10/11 02:00:56;;;;;;;11.47;5.63;;;11.60;72.10;;;;;;4957773;28;20713;-96
2022/10/11 02:03:39;;;;;;;11.63;4.90;;;11.60;72.30;;;;;;4955750;28;20233;-96
2022/10/11 02:06:49;;;;;;;13.03;5.50;;;11.60;72.30;;;;;;4939466;29;20259;-96
2022/10/11 02:09:30;;;;;;;12.50;5.73;;;11.60;72.30;;;;;;4947236;29;20204;-96
2022/10/11 02:12:03;;;;;;;9.97;5.30;;;11.60;72.30;;;;;;4955286;28;20221;-96
2022/10/11 02:17:31;;;;;;;15.60;6.47;;;11.60;72.20;;;;;;4961069;28;20204;-96
2022/10/11 02:20:03;;;;;;;18.73;6.70;;;11.60;72.00;;;;;;4957393;28;20578;-96
2022/10/11 02:22:34;;;;;;;10.57;5.00;;;11.50;71.80;;;;;;4957381;28;20327;-96
2022/10/11 02:25:08;;;;;;;10.20;5.50;;;11.60;71.90;;;;;;4957364;28;20259;-96
2022/10/11 02:27:40;;;;;;;15.30;5.30;;;11.50;72.20;;;;;;4956870;28;21027;-96
2022/10/11 02:30:11;;;;;;;12.00;5.53;;;11.50;72.30;;;;;;4938425;28;20232;-96
2022/10/11 02:32:46;;;;;;;9.17;5.17;;;11.50;72.60;;;;;;4946391;29;20546;-96
2022/10/11 02:35:19;;;;;;;7.47;4.70;;;11.50;73.00;;;;;;4956706;28;20211;-96
2022/10/11 02:37:53;;;;;;;14.90;6.03;;;11.50;73.20;;;;;;4952883;29;20256;-96
2022/10/11 02:43:41;;;;;;;9.87;4.73;;;11.50;73.30;;;;;;4952698;28;20598;-96
2022/10/11 02:52:20;;;;;;;14.17;5.63;;;11.50;73.00;;;;;;4953848;29;20200;-96
2022/10/11 02:54:56;;;;;;;10.67;5.23;;;11.50;73.30;;;;;;4950533;29;20205;-96
2022/10/11 03:00:08;;;;;;;16.03;5.47;;;11.50;73.30;;;;;;4987622;28;20265;-96
2022/10/11 03:02:36;;;;;;;8.47;5.07;;;11.50;73.30;;;;;;4988556;28;20223;-96
2022/10/11 03:05:08;;;;;;;12.83;5.63;;;11.50;73.30;;;;;;4987511;28;20210;-96
2022/10/11 03:07:37;;;;;;;12.53;5.80;;;11.50;73.50;;;;;;4995897;28;20203;-96
2022/10/11 03:10:06;;;;;;;15.43;6.03;;;11.50;73.60;;;;;;4994199;28;20211;-96
2022/10/11 03:12:34;;;;;;;13.43;6.07;;;11.50;73.80;;;;;;4993282;28;20276;-96
2022/10/11 03:15:24;;;;;;;16.33;6.20;;;11.60;73.80;;;;;;4991633;28;20225;-96
2022/10/11 03:18:44;;;;;;;29.47;9.07;;;11.50;74.10;;;;;;4990926;28;20202;-96
2022/10/11 03:24:43;;;;;;;7.77;4.60;;;11.50;73.40;;;;;;4977361;28;20217;-96
2022/10/11 03:33:19;;;;;;;23.27;8.33;;;11.50;72.80;;;;;;4994572;28;20221;-96
2022/10/11 03:35:59;;;;;;;16.17;6.40;;;11.50;72.70;;;;;;5003332;28;20206;-96
2022/10/11 03:38:33;;;;;;;11.10;5.10;;;11.40;73.00;;;;;;4981016;28;20222;-96
2022/10/11 03:41:08;;;;;;;7.33;5.00;;;11.40;73.20;;;;;;4985366;28;20207;-96
2022/10/11 03:43:40;;;;;;;14.20;5.30;;;11.40;73.30;;;;;;4994065;28;20235;-96
2022/10/11 03:49:44;;;;;;;28.60;8.87;;;11.40;73.70;;;;;;4984382;28;20199;-96
2022/10/11 03:52:15;;;;;;;14.40;6.33;;;11.40;74.20;;;;;;4992168;28;20876;-96
2022/10/11 03:54:42;;;;;;;10.00;5.13;;;11.40;73.90;;;;;;4999188;28;20203;-96
2022/10/11 03:57:55;;;;;;;11.13;5.10;;;11.30;73.50;;;;;;5000575;28;20213;-96
2022/10/11 04:04:44;;;;;;;11.80;5.50;;;11.30;74.20;;;;;;4971504;28;20237;-96
2022/10/11 04:07:41;;;;;;;13.57;5.67;;;11.40;74.70;;;;;;4970797;28;20204;-96
2022/10/11 04:10:13;;;;;;;22.07;8.13;;;11.40;74.80;;;;;;4996775;28;20211;-96
2022/10/11 04:12:40;;;;;;;12.27;5.57;;;11.30;74.60;;;;;;4994888;28;20201;-96
2022/10/11 04:15:41;;;;;;;19.00;6.67;;;11.30;74.50;;;;;;4987078;28;20200;-96
2022/10/11 04:18:29;;;;;;;19.97;6.80;;;11.30;75.00;;;;;;4990404;28;20233;-96
2022/10/11 04:21:39;;;;;;;10.80;5.77;;;11.40;74.80;;;;;;4991545;28;20672;-96
2022/10/11 04:30:18;;;;;;;11.60;5.40;;;11.40;75.00;;;;;;4972477;28;20234;-96
2022/10/11 04:32:47;;;;;;;12.70;5.90;;;11.40;74.30;;;;;;4975302;28;20203;-96
2022/10/11 04:35:14;;;;;;;15.13;6.40;;;11.40;74.00;;;;;;4989538;28;20644;-96
2022/10/11 04:37:41;;;;;;;13.57;6.37;;;11.40;74.00;;;;;;4995979;28;20202;-96
2022/10/11 04:40:12;;;;;;;17.20;6.33;;;11.40;73.80;;;;;;4992246;28;20198;-96
2022/10/11 04:43:32;;;;;;;20.63;7.50;;;11.40;74.00;;;;;;4984667;28;20608;-96
2022/10/11 04:46:00;;;;;;;14.83;6.17;;;11.40;74.30;;;;;;4977384;28;20208;-96
2022/10/11 04:48:30;;;;;;;10.10;5.23;;;11.40;73.80;;;;;;4978749;28;20196;-96
2022/10/11 04:50:57;;;;;;;10.53;5.30;;;11.30;74.20;;;;;;4994950;28;20454;-96
2022/10/11 04:53:25;;;;;;;10.53;5.33;;;11.40;74.10;;;;;;4992312;28;20211;-96
2022/10/11 04:56:29;;;;;;;11.77;5.50;;;11.40;73.90;;;;;;4996910;28;20320;-96
2022/10/11 04:58:56;;;;;;;20.63;7.67;;;11.30;74.50;;;;;;4904772;29;20703;-96
2022/10/11 05:01:45;;;;;;;16.33;6.60;;;11.30;74.10;;;;;;4900744;29;20603;-96
2022/10/11 05:04:13;;;;;;;12.17;6.13;;;11.30;74.90;;;;;;4925456;29;20828;-96
2022/10/11 05:06:43;;;;;;;12.73;5.83;;;11.30;74.20;;;;;;4920384;29;20745;-96
2022/10/11 05:09:34;;;;;;;13.70;5.37;;;11.30;74.30;;;;;;4918981;29;20229;-96
2022/10/11 05:12:07;;;;;;;12.97;5.87;;;11.30;74.90;;;;;;4919539;29;20209;-96
2022/10/11 05:14:40;;;;;;;13.03;5.80;;;11.30;74.70;;;;;;4930307;29;20221;-96
2022/10/11 05:17:15;;;;;;;19.50;7.60;;;11.30;75.10;;;;;;4918844;29;20206;-96
2022/10/11 05:19:44;;;;;;;11.07;5.63;;;11.30;75.40;;;;;;4932556;29;20205;-96
2022/10/11 05:26:22;;;;;;;12.90;6.30;;;11.30;76.20;;;;;;4925750;29;20847;-96
2022/10/11 05:28:52;;;;;;;48.73;14.73;;;11.30;76.00;;;;;;4935961;23;20215;-96
2022/10/11 05:31:20;;;;;;;11.33;5.60;;;11.30;75.20;;;;;;4976441;28;20316;-96
2022/10/11 05:33:53;;;;;;;16.47;6.93;;;11.30;75.10;;;;;;4977135;28;20295;-96
2022/10/11 05:36:22;;;;;;;13.57;6.47;;;11.30;75.70;;;;;;4977690;28;20211;-96
2022/10/11 05:38:50;;;;;;;16.30;6.13;;;11.30;75.60;;;;;;4977417;28;20202;-96
2022/10/11 05:41:32;;;;;;;8.80;4.90;;;11.30;75.70;;;;;;4977107;28;20261;-96
2022/10/11 05:44:01;;;;;;;10.50;5.43;;;11.30;76.50;;;;;;4977614;28;20289;-96
2022/10/11 05:46:29;;;;;;;14.87;6.57;;;11.30;76.30;;;;;;4984128;28;20216;-96
2022/10/11 05:48:57;;;;;;;16.60;6.50;;;11.30;76.40;;;;;;4987782;28;20207;-96
2022/10/11 05:51:29;;;;;;;13.53;6.43;;;11.30;76.30;;;;;;4995150;28;20246;-96
2022/10/11 05:54:06;;;;;;;12.73;5.40;;;11.30;76.70;;;;;;4993183;28;20208;-96
2022/10/11 05:59:51;;;;;;;10.57;5.17;;;11.30;76.40;;;;;;4964228;28;20211;-96
2022/10/11 06:02:43;;;;;;;9.27;5.10;;;11.30;76.00;;;;;;4991670;28;20227;-96
2022/10/11 06:06:12;;;;;;;13.00;5.30;;;11.30;76.30;;;;;;4992252;28;20231;-96
2022/10/11 06:08:50;;;;;;;15.17;6.57;;;11.40;76.40;;;;;;4975158;28;20197;-96
2022/10/11 06:15:05;;;;;;;;;;;;;;;;;;;;;
2022/10/11 06:17:46;;;;;;;11.90;5.33;;;11.30;75.50;;;;;;4983907;28;20224;-96
2022/10/11 06:20:28;;;;;;;10.80;5.63;;;11.30;75.70;;;;;;4983749;28;20657;-95
2022/10/11 06:22:57;;;;;;;15.77;6.60;;;11.30;75.30;;;;;;4974200;28;20643;-95
2022/10/11 06:25:25;;;;;;;27.33;9.80;;;11.30;75.10;;;;;;4971130;28;20203;-94
2022/10/11 06:27:53;;;;;;;18.50;7.93;;;11.30;75.10;;;;;;4972851;28;20629;-96
2022/10/11 06:30:48;;;;;;;14.93;6.73;;;11.30;75.10;;;;;;4972929;28;20245;-94
2022/10/11 06:33:16;;;;;;;18.33;7.90;;;11.30;75.80;;;;;;4971333;28;20241;-94
2022/10/11 06:35:43;;;;;;;16.70;6.70;;;11.30;75.40;;;;;;4971491;28;20702;-94
2022/10/11 06:38:10;;;;;;;9.47;5.70;;;11.30;75.70;;;;;;4964485;28;20208;-92
2022/10/11 06:40:38;;;;;;;15.07;7.03;;;11.30;75.80;;;;;;4987620;28;20214;-91
2022/10/11 06:43:10;;;;;;;14.50;7.27;;;11.30;75.80;;;;;;4978124;28;20265;-93
2022/10/11 06:45:49;;;;;;;12.40;6.53;;;11.30;75.90;;;;;;4978001;28;20246;-93
2022/10/11 06:48:55;;;;;;;14.60;6.93;;;11.30;75.80;;;;;;4974756;28;20664;-93
2022/10/11 06:51:27;;;;;;;14.40;7.27;;;11.30;76.30;;;;;;4974864;28;20202;-92
2022/10/11 06:53:56;;;;;;;15.03;6.53;;;11.30;76.30;;;;;;4968722;28;20207;-94
2022/10/11 06:56:24;;;;;;;14.23;7.40;;;11.30;76.40;;;;;;4974480;28;20253;-93
2022/10/11 06:58:52;;;;;;;16.03;7.87;;;11.30;76.50;;;;;;4978612;28;20203;-90
2022/10/11 07:01:23;;;;;;;17.33;7.23;;;11.30;76.40;;;;;;4983222;28;20210;-90
2022/10/11 07:04:18;;;;;;;12.53;6.70;;;11.30;76.80;;;;;;4976456;28;20231;-92
2022/10/11 07:06:50;;;;;;;10.40;5.77;;;11.30;76.90;;;;;;4956268;28;20235;-94
2022/10/11 07:09:18;;;;;;;18.33;7.47;;;11.30;76.80;;;;;;4960469;28;20209;-94
2022/10/11 07:12:08;;;;;;;14.97;6.60;;;11.30;76.50;;;;;;4972015;28;20230;-94
2022/10/11 07:15:09;;;;;;;11.40;6.60;;;11.30;77.30;;;;;;4973952;28;20218;-93
2022/10/11 07:17:38;;;;;;;10.63;6.03;;;11.30;77.70;;;;;;4975948;28;20222;-94
2022/10/11 07:20:06;;;;;;;11.40;6.40;;;11.30;77.50;;;;;;4974382;28;20203;-94
2022/10/11 07:22:38;;;;;;;14.63;7.20;;;11.40;78.00;;;;;;4973569;28;20218;-95
2022/10/11 07:25:07;;;;;;;12.37;6.83;;;11.40;78.60;;;;;;4989781;23;20308;-94
2022/10/11 07:27:35;;;;;;;16.43;7.60;;;11.40;78.40;;;;;;4982008;28;20606;-94
2022/10/11 07:30:03;;;;;;;12.00;7.40;;;11.40;78.60;;;;;;4968978;28;20278;-94
2022/10/11 07:32:30;;;;;;;15.97;7.33;;;11.40;78.60;;;;;;4968533;28;20326;-94
2022/10/11 07:35:00;;;;;;;20.73;7.83;;;11.50;78.70;;;;;;4967317;28;20211;-95
2022/10/11 07:37:28;;;;;;;11.90;6.73;;;11.50;78.70;;;;;;4969344;28;20649;-94
2022/10/11 07:39:56;;;;;;;9.73;5.47;;;11.50;78.70;;;;;;4967219;28;20213;-94
2022/10/11 07:42:23;;;;;;;13.27;6.33;;;11.50;78.70;;;;;;4961944;28;20220;-93
2022/10/11 07:44:52;;;;;;;11.20;5.73;;;11.50;78.70;;;;;;4966068;28;20295;-93
2022/10/11 07:47:19;;;;;;;11.80;6.60;;;11.60;78.80;;;;;;4962212;28;20211;-94
2022/10/11 07:49:48;;;;;;;10.23;6.00;;;11.60;78.80;;;;;;4959016;28;20693;-94
2022/10/11 07:52:18;;;;;;;17.23;7.83;;;11.60;79.10;;;;;;4963058;28;20204;-94
2022/10/11 07:54:45;;;;;;;14.50;7.30;;;11.70;80.00;;;;;;4966530;28;20216;-93
2022/10/11 07:57:17;;;;;;;19.83;8.27;;;11.70;80.90;;;;;;4962439;28;20207;-95
2022/10/11 07:59:46;;;;;;;14.73;7.23;;;11.80;83.60;;;;;;4966066;28;20255;-93
2022/10/11 08:02:13;;;;;;;15.27;7.33;;;11.90;84.40;;;;;;4965661;28;20231;-94
2022/10/11 08:04:41;;;;;;;17.60;7.67;;;12.00;84.80;;;;;;4970405;28;20275;-95
2022/10/11 08:07:08;;;;;;;15.03;6.80;;;12.10;85.40;;;;;;4969508;28;20201;-94
2022/10/11 08:09:36;;;;;;;31.03;10.60;;;12.30;86.20;;;;;;4981556;28;20208;-94
2022/10/11 08:12:17;;;;;;;12.83;6.10;;;12.50;87.00;;;;;;4975856;28;20200;-95
2022/10/11 08:14:47;;;;;;;10.70;5.93;;;12.70;88.50;;;;;;4974576;28;20251;-95
2022/10/11 08:17:17;;;;;;;9.80;4.90;;;13.00;88.30;;;;;;4967346;28;20237;-94
2022/10/11 08:19:57;;;;;;;13.77;6.60;;;13.30;88.90;;;;;;4959190;28;20217;-93
2022/10/11 08:22:24;;;;;;;13.00;5.97;;;13.60;88.90;;;;;;4960324;28;20198;-92
2022/10/11 08:24:51;;;;;;;12.03;5.67;;;13.90;88.00;;;;;;4961078;28;20322;-92
2022/10/11 08:27:19;;;;;;;14.97;6.20;;;14.10;87.70;;;;;;4975711;28;20210;-92
2022/10/11 08:29:46;;;;;;;14.47;6.57;;;14.40;86.70;;;;;;4975684;28;20251;-93
2022/10/11 08:32:13;;;;;;;16.67;6.80;;;14.70;86.70;;;;;;4981157;28;20197;-91
2022/10/11 08:34:49;;;;;;;14.07;5.70;;;15.00;86.50;;;;;;4973940;28;20200;-91
2022/10/11 08:37:24;;;;;;;11.27;5.17;;;15.30;85.80;;;;;;4971346;28;20530;-90
2022/10/11 08:39:54;;;;;;;9.03;4.83;;;15.60;86.90;;;;;;4965070;28;20269;-90
2022/10/11 08:42:34;;;;;;;15.87;5.87;;;15.90;83.30;;;;;;4969428;28;20547;-91
2022/10/11 08:45:07;;;;;;;8.33;5.00;;;16.20;83.70;;;;;;4978302;28;20660;-91
2022/10/11 08:47:42;;;;;;;11.93;4.90;;;16.60;81.80;;;;;;4969923;28;20238;-90
2022/10/11 08:50:19;;;;;;;11.13;5.30;;;16.90;80.30;;;;;;4964766;28;20277;-89
2022/10/11 08:52:52;;;;;;;18.83;6.27;;;17.20;78.60;;;;;;4961047;28;20290;-90
2022/10/11 08:55:26;;;;;;;14.70;5.57;;;17.50;78.70;;;;;;4963288;28;20281;-90
2022/10/11 08:57:56;;;;;;;17.00;7.07;;;17.80;78.30;;;;;;4966837;28;20232;-90
2022/10/11 09:00:24;;;;;;;18.53;6.77;;;18.00;75.90;;;;;;4962012;28;20233;-90
2022/10/11 09:02:59;;;;;;;15.27;5.57;;;18.30;75.10;;;;;;4964385;28;20646;-90
2022/10/11 09:05:47;;;;;;;15.73;5.90;;;18.50;74.30;;;;;;4963281;28;20246;-90
2022/10/11 09:08:24;;;;;;;12.83;4.43;;;18.80;73.10;;;;;;4959165;28;20286;-91
2022/10/11 09:10:58;;;;;;;16.00;5.03;;;19.00;72.50;;;;;;4960698;28;20286;-91
2022/10/11 09:14:11;;;;;;;12.63;4.93;;;19.30;71.60;;;;;;4963888;28;20212;-94
2022/10/11 09:16:57;;;;;;;12.17;4.30;;;19.50;70.10;;;;;;4960577;28;20263;-89
2022/10/11 09:19:51;;;;;;;12.33;4.80;;;19.80;69.90;;;;;;4960140;28;20298;-89
2022/10/11 09:22:29;;;;;;;14.73;5.40;;;20.00;68.60;;;;;;4963437;28;20203;-89
2022/10/11 09:25:12;;;;;;;11.63;4.53;;;20.30;68.70;;;;;;4968955;28;20276;-90
2022/10/11 09:28:06;;;;;;;12.50;4.40;;;20.50;66.30;;;;;;4969231;28;20636;-91
2022/10/11 09:30:45;;;;;;;12.87;5.17;;;20.70;67.40;;;;;;4967756;28;20353;-90
2022/10/11 09:33:17;;;;;;;11.93;5.17;;;20.90;66.90;;;;;;4959861;28;20265;-90
2022/10/11 09:35:47;;;;;;;13.53;4.90;;;21.10;66.90;;;;;;4961507;28;20291;-90
2022/10/11 09:38:24;;;;;;;10.27;4.03;;;21.30;66.10;;;;;;4962626;28;20207;-90
2022/10/11 09:41:03;;;;;;;12.27;4.23;;;21.50;65.00;;;;;;4960779;28;20214;-88
2022/10/11 09:43:30;;;;;;;14.97;5.17;;;21.70;65.10;;;;;;4968290;28;20216;-91
2022/10/11 09:45:58;;;;;;;15.97;4.77;;;21.90;65.50;;;;;;4955808;28;20219;-89
2022/10/11 09:48:29;;;;;;;11.20;3.57;;;22.10;64.40;;;;;;4960134;28;20207;-88
2022/10/11 09:51:04;;;;;;;17.17;6.27;;;22.30;63.80;;;;;;4953663;28;20204;-88
2022/10/11 09:53:54;;;;;;;9.23;3.47;;;22.50;63.40;;;;;;4959073;28;20660;-89
2022/10/11 09:56:22;;;;;;;8.40;3.47;;;22.70;61.30;;;;;;4962891;28;20209;-89
2022/10/11 09:59:05;;;;;;;8.87;3.30;;;22.90;62.60;;;;;;4957957;28;20217;-89
2022/10/11 10:01:34;;;;;;;8.67;3.30;;;23.10;62.30;;;;;;4958353;28;20286;-88
2022/10/11 10:04:07;;;;;;;10.50;3.87;;;23.30;61.10;;;;;;4954897;28;20227;-88
2022/10/11 10:06:34;;;;;;;8.80;2.87;;;23.30;59.50;;;;;;4959442;28;20211;-91
2022/10/11 10:09:25;;;;;;;13.27;4.07;;;23.50;60.10;;;;;;4957031;28;20207;-89
2022/10/11 10:11:53;;;;;;;7.43;2.77;;;23.60;58.30;;;;;;4953272;28;21029;-90
2022/10/11 10:14:27;;;;;;;10.90;3.63;;;23.70;59.20;;;;;;4952727;28;20203;-91
2022/10/11 10:17:04;;;;;;;17.90;6.23;;;23.80;58.50;;;;;;4956457;28;20211;-91
2022/10/11 10:19:46;;;;;;;8.97;2.93;;;24.00;57.20;;;;;;4961226;28;20295;-91
2022/10/11 10:22:19;;;;;;;9.33;3.13;;;24.10;58.60;;;;;;4960961;28;20207;-90
2022/10/11 10:24:50;;;;;;;8.90;3.37;;;24.20;57.60;;;;;;4968888;28;20222;-91
2022/10/11 10:27:22;;;;;;;10.80;3.80;;;24.30;57.20;;;;;;4972275;28;20227;-92
2022/10/11 10:30:14;;;;;;;7.40;3.00;;;24.40;56.60;;;;;;4967583;28;20247;-91
2022/10/11 10:32:52;;;;;;;8.73;2.80;;;24.50;55.20;;;;;;4962459;28;20203;-92
2022/10/11 10:35:37;;;;;;;10.27;3.97;;;24.60;55.90;;;;;;4957648;28;20204;-91
2022/10/11 10:38:10;;;;;;;7.67;3.40;;;24.70;55.50;;;;;;4959055;28;20897;-91
2022/10/11 10:41:19;;;;;;;11.90;4.30;;;24.80;56.60;;;;;;4960072;28;20298;-93
2022/10/11 10:43:52;;;;;;;13.80;4.23;;;24.90;54.40;;;;;;4956221;28;20218;-89
2022/10/11 10:46:35;;;;;;;13.47;3.37;;;24.90;54.60;;;;;;4961514;28;20476;-91
2022/10/11 10:49:43;;;;;;;11.03;4.07;;;25.00;54.10;;;;;;4959673;28;20301;-92
2022/10/11 10:52:48;;;;;;;15.07;6.20;;;25.10;53.00;;;;;;4962963;28;20305;-91
2022/10/11 10:55:23;;;;;;;11.03;3.10;;;25.20;53.60;;;;;;4960606;28;20683;-94
2022/10/11 10:58:06;;;;;;;11.43;3.67;;;25.30;54.40;;;;;;4962015;28;20207;-94
2022/10/11 11:00:42;;;;;;;6.83;2.63;;;25.40;53.20;;;;;;4959556;28;20207;-92
2022/10/11 11:03:21;;;;;;;11.20;4.43;;;25.50;53.40;;;;;;4963496;28;20207;-94
2022/10/11 11:05:55;;;;;;;11.90;4.53;;;25.50;53.30;;;;;;4960205;28;20230;-93
2022/10/11 11:08:47;;;;;;;12.00;4.17;;;25.60;53.20;;;;;;4960553;28;20243;-94
2022/10/11 11:11:32;;;;;;;8.73;3.83;;;25.70;51.80;;;;;;4958813;28;20211;-92
2022/10/11 11:14:10;;;;;;;8.67;2.97;;;25.70;51.20;;;;;;4958516;28;20292;-93
2022/10/11 11:16:45;;;;;;;10.43;3.10;;;25.70;51.40;;;;;;4961707;28;20579;-93
2022/10/11 11:19:23;;;;;;;10.73;3.37;;;25.70;51.90;;;;;;4961373;28;20282;-93
2022/10/11 11:21:59;;;;;;;8.20;2.77;;;25.60;51.10;;;;;;4967060;28;20214;-94
2022/10/11 11:24:38;;;;;;;7.90;2.20;;;25.60;51.10;;;;;;4968345;28;20250;-96
2022/10/11 11:27:16;;;;;;;7.77;2.50;;;25.50;50.50;;;;;;4964645;28;20722;-93
2022/10/11 11:29:53;;;;;;;7.30;2.60;;;25.40;51.20;;;;;;4969218;28;20317;-93
2022/10/11 11:32:31;;;;;;;5.50;2.30;;;25.30;50.30;;;;;;4972118;28;20218;-95
2022/10/11 11:35:02;;;;;;;11.63;3.93;;;25.20;50.60;;;;;;4965918;28;21232;-94
2022/10/11 11:37:34;;;;;;;5.90;2.23;;;25.10;50.70;;;;;;4961648;28;20298;-94
2022/10/11 11:40:16;;;;;;;11.53;3.70;;;24.90;50.60;;;;;;4964578;28;20230;-93
2022/10/11 11:42:59;;;;;;;7.43;2.43;;;24.80;50.10;;;;;;4963462;28;20563;-94
2022/10/11 11:45:31;;;;;;;7.07;2.67;;;24.70;51.30;;;;;;4952958;28;20693;-94
2022/10/11 11:48:02;;;;;;;11.13;4.07;;;24.50;51.00;;;;;;4952181;28;20212;-94
2022/10/11 11:50:34;;;;;;;9.50;3.60;;;24.40;51.00;;;;;;4971079;28;20206;-93
2022/10/11 11:53:07;;;;;;;6.87;3.00;;;24.30;51.20;;;;;;4971546;28;20253;-94
2022/10/11 11:55:48;;;;;;;5.57;2.50;;;24.20;51.40;;;;;;4952729;28;20665;-92
2022/10/11 11:58:29;;;;;;;7.17;2.43;;;24.10;51.30;;;;;;4952509;28;20203;-93
2022/10/11 12:01:03;;;;;;;14.67;5.27;;;24.00;51.30;;;;;;4962855;28;20205;-93
2022/10/11 12:03:37;;;;;;;9.50;3.60;;;24.00;52.00;;;;;;4958008;28;20241;-93
2022/10/11 12:06:23;;;;;;;8.63;2.97;;;23.90;51.60;;;;;;4952730;28;20255;-93
2022/10/11 12:09:00;;;;;;;11.97;3.57;;;23.80;50.90;;;;;;4955444;28;20207;-92
2022/10/11 12:11:39;;;;;;;8.87;3.07;;;23.90;51.80;;;;;;4972129;28;20199;-94
2022/10/11 12:14:27;;;;;;;9.17;2.87;;;24.00;52.50;;;;;;4972023;28;20294;-93
2022/10/11 12:17:12;;;;;;;8.50;2.73;;;24.10;52.40;;;;;;4960450;28;20238;-93
2022/10/11 12:19:43;;;;;;;8.00;2.67;;;24.20;51.60;;;;;;4967267;28;20231;-90
2022/10/11 12:22:36;;;;;;;13.17;3.37;;;24.30;52.00;;;;;;4967387;28;20207;-94
2022/10/11 12:25:25;;;;;;;9.57;2.97;;;24.40;51.60;;;;;;4974658;28;20232;-91
2022/10/11 12:27:57;;;;;;;10.83;3.60;;;24.60;51.90;;;;;;4956171;28;21029;-92
2022/10/11 12:30:51;;;;;;;12.67;4.40;;;24.80;51.70;;;;;;4968936;28;20251;-93
2022/10/11 12:33:21;;;;;;;12.23;4.80;;;25.00;50.50;;;;;;4971961;28;20202;-91
2022/10/11 12:35:58;;;;;;;9.47;4.07;;;25.10;50.90;;;;;;4985169;28;20211;-92
2022/10/11 12:38:27;;;;;;;12.03;4.17;;;25.30;50.90;;;;;;4971663;28;20280;-93
2022/10/11 12:40:59;;;;;;;9.27;2.77;;;25.40;51.20;;;;;;4997562;28;20187;-94
2022/10/11 12:44:05;;;;;;;6.80;2.90;;;25.50;50.60;;;;;;4980931;28;20246;-93
2022/10/11 12:47:06;;;;;;;5.07;2.13;;;25.70;49.50;;;;;;4961429;28;20226;-93
2022/10/11 12:49:59;;;;;;;4.90;1.80;;;25.90;49.70;;;;;;4974301;28;20203;-94
2022/10/11 12:52:51;;;;;;;10.03;3.70;;;26.00;49.20;;;;;;4973278;28;20698;-92
2022/10/11 12:55:51;;;;;;;8.03;3.20;;;26.20;49.20;;;;;;4971513;28;20230;-93
2022/10/11 12:58:27;;;;;;;10.57;3.67;;;26.30;48.10;;;;;;4966815;28;20242;-91
2022/10/11 13:01:20;;;;;;;7.23;3.03;;;26.40;48.60;;;;;;4973935;28;20203;-93
2022/10/11 13:03:57;;;;;;;6.57;2.77;;;26.50;47.50;;;;;;4975438;28;20297;-94
2022/10/11 13:06:38;;;;;;;10.93;3.33;;;26.60;48.60;;;;;;4961830;28;20258;-94
2022/10/11 13:09:17;;;;;;;6.47;2.70;;;26.70;47.90;;;;;;4971111;28;20721;-93
2022/10/11 13:11:49;;;;;;;5.00;2.27;;;26.70;47.40;;;;;;4961338;28;20830;-93
2022/10/11 13:14:19;;;;;;;10.70;4.77;;;26.70;47.20;;;;;;4968915;28;20208;-93
2022/10/11 13:16:59;;;;;;;9.23;3.37;;;26.60;47.10;;;;;;4967180;28;20207;-94
2022/10/11 13:19:38;;;;;;;5.47;1.87;;;26.50;45.90;;;;;;4959708;28;20536;-94
2022/10/11 13:22:15;;;;;;;8.70;3.37;;;26.40;46.40;;;;;;4960206;28;20978;-94
2022/10/11 13:24:56;;;;;;;13.13;3.90;;;26.30;46.60;;;;;;4969175;28;20215;-94
2022/10/11 13:27:27;;;;;;;9.27;3.83;;;26.20;45.50;;;;;;4967111;28;20363;-93
2022/10/11 13:30:59;;;;;;;;;;;;;;;;;;;;;
2022/10/11 13:33:45;;;;;;;8.70;2.73;;;26.00;46.40;;;;;;4962868;28;20217;-95
2022/10/11 13:36:30;;;;;;;5.00;1.93;;;25.90;46.60;;;;;;4957430;28;20317;-95
2022/10/11 13:39:00;;;;;;;10.03;3.93;;;25.80;45.70;;;;;;4971926;28;20222;-94
2022/10/11 13:41:45;;;;;;;7.83;3.03;;;25.60;46.60;;;;;;4972041;28;20210;-94
2022/10/11 13:44:21;;;;;;;6.47;2.13;;;25.50;46.40;;;;;;4961336;28;20494;-94
2022/10/11 13:46:49;;;;;;;6.63;2.67;;;25.40;47.00;;;;;;4960469;28;20273;-94
2022/10/11 13:49:36;;;;;;;11.33;4.87;;;25.40;47.00;;;;;;4967844;28;20235;-94
2022/10/11 13:52:18;;;;;;;8.43;3.07;;;25.30;46.10;;;;;;4971983;28;20206;-94
2022/10/11 13:55:30;;;;;;;7.33;3.33;;;25.20;46.80;;;;;;4968140;28;20199;-95
2022/10/11 13:58:01;;;;;;;6.53;2.53;;;25.10;46.20;;;;;;4959442;28;20266;-95
2022/10/11 14:00:33;;;;;;;10.70;4.33;;;25.00;47.20;;;;;;4966887;28;20382;-93
2022/10/11 14:03:29;;;;;;;6.23;2.63;;;24.90;47.30;;;;;;4968308;28;20206;-95
2022/10/11 14:05:58;;;;;;;10.13;3.43;;;24.80;46.50;;;;;;4956563;28;20326;-96
2022/10/11 14:08:32;;;;;;;8.77;3.13;;;24.70;47.40;;;;;;4957283;28;20239;-95
2022/10/11 14:11:00;;;;;;;10.83;3.93;;;24.60;47.30;;;;;;4958411;28;20234;-96
2022/10/11 14:13:32;;;;;;;9.40;2.93;;;24.50;47.30;;;;;;4959676;28;20672;-95
2022/10/11 14:16:34;;;;;;;7.93;3.30;;;24.50;47.00;;;;;;4962091;28;20278;-95
2022/10/11 14:22:18;;;;;;;8.47;3.23;;;24.40;47.00;;;;;;4952274;28;20289;-96
2022/10/11 14:25:06;;;;;;;9.70;3.67;;;24.30;47.20;;;;;;4965908;28;20229;-93
2022/10/11 14:27:34;;;;;;;12.97;4.03;;;24.20;47.00;;;;;;4966281;28;20211;-95
2022/10/11 14:30:04;;;;;;;11.07;4.23;;;24.10;47.50;;;;;;4970834;28;20231;-95
2022/10/11 14:32:35;;;;;;;9.33;3.67;;;24.10;47.40;;;;;;4970521;28;20607;-95
2022/10/11 14:35:40;;;;;;;6.83;2.97;;;24.00;47.60;;;;;;4961997;28;20226;-96
2022/10/11 14:38:13;;;;;;;13.30;5.33;;;23.90;47.50;;;;;;4944913;28;20290;-96
2022/10/11 14:40:48;;;;;;;5.00;2.13;;;23.80;47.70;;;;;;4972143;28;20237;-94
2022/10/11 14:43:15;;;;;;;14.47;4.57;;;23.80;47.40;;;;;;4967829;28;20238;-96
2022/10/11 14:45:44;;;;;;;8.67;3.53;;;23.70;47.70;;;;;;4970997;28;20247;-96
2022/10/11 14:48:11;;;;;;;12.20;4.13;;;23.60;47.80;;;;;;4970378;28;20631;-95